Time;durP1;ratioP1;P1;durP2;ratioP2;P2;SDS_P1;SDS_P2;PMS_P1;PMS_P2;Temp;Humidity;BMP_temperature;BMP_pressure;BME280_temperature;BME280_humidity;BME280_pressure;Samples;Min_cycle;Max_cycle;Signal;HPM_P1;HPM_P2
2023/03/06 00:00:29;;;;;;;2.15;0.80;;;;;;;;;;4771232;30;20048;-93
2023/03/06 00:02:56;;;;;;;0.68;0.68;;;;;;;;;;4755184;30;20064;-92
2023/03/06 00:05:22;;;;;;;2.53;1.13;;;;;;;;;;4770843;30;20056;-93
2023/03/06 00:07:48;;;;;;;2.10;0.98;;;;;;;;;;4755442;30;20064;-92
2023/03/06 00:10:15;;;;;;;0.80;0.80;;;;;;;;;;4770175;30;20054;-92
2023/03/06 00:12:41;;;;;;;0.73;0.73;;;;;;;;;;4755457;30;20506;-92
2023/03/06 00:15:08;;;;;;;0.77;0.77;;;;;;;;;;4754535;30;20533;-89
2023/03/06 00:17:34;;;;;;;1.50;0.80;;;;;;;;;;4725629;30;20574;-88
2023/03/06 00:20:04;;;;;;;1.10;1.00;;;;;;;;;;4755287;30;20490;-90
2023/03/06 00:22:31;;;;;;;1.30;0.98;;;;;;;;;;4754566;30;20426;-90
2023/03/06 00:24:57;;;;;;;1.23;0.90;;;;;;;;;;4726314;30;20498;-90
2023/03/06 00:27:25;;;;;;;1.38;1.10;;;;;;;;;;4754400;30;20129;-90
2023/03/06 00:29:57;;;;;;;1.20;1.02;;;;;;;;;;4725792;30;20059;-90
2023/03/06 00:32:24;;;;;;;2.38;1.02;;;;;;;;;;4754516;30;20203;-90
2023/03/06 00:34:54;;;;;;;1.55;1.00;;;;;;;;;;4754192;30;20055;-88
2023/03/06 00:37:20;;;;;;;1.55;1.05;;;;;;;;;;4754796;30;20510;-91
2023/03/06 00:39:48;;;;;;;3.38;1.20;;;;;;;;;;4755075;30;20051;-91
2023/03/06 00:42:14;;;;;;;3.17;1.05;;;;;;;;;;4757989;30;20051;-92
2023/03/06 00:44:40;;;;;;;1.35;1.00;;;;;;;;;;4758783;30;20064;-93
2023/03/06 00:47:06;;;;;;;3.33;1.30;;;;;;;;;;4744587;30;20574;-93
2023/03/06 00:49:32;;;;;;;2.53;1.90;;;;;;;;;;4758838;30;20052;-93
2023/03/06 00:51:58;;;;;;;1.70;1.20;;;;;;;;;;4759011;30;20090;-93
2023/03/06 00:54:24;;;;;;;1.95;1.33;;;;;;;;;;4759314;30;20123;-90
2023/03/06 00:56:50;;;;;;;2.15;1.25;;;;;;;;;;4758857;30;20079;-90
2023/03/06 00:59:17;;;;;;;2.75;1.15;;;;;;;;;;4744147;30;20059;-90
2023/03/06 01:01:43;;;;;;;6.57;1.38;;;;;;;;;;4729200;30;20095;-90
2023/03/06 01:04:09;;;;;;;5.60;1.60;;;;;;;;;;4757713;30;20071;-90
2023/03/06 01:06:35;;;;;;;2.75;1.50;;;;;;;;;;4757423;30;20125;-91
2023/03/06 01:09:01;;;;;;;2.80;1.23;;;;;;;;;;4728382;30;20063;-90
2023/03/06 01:11:27;;;;;;;2.17;1.42;;;;;;;;;;4728613;30;20065;-92
2023/03/06 01:13:53;;;;;;;3.10;1.42;;;;;;;;;;4757852;30;20144;-92
2023/03/06 01:16:20;;;;;;;4.82;1.50;;;;;;;;;;4728844;30;20553;-92
2023/03/06 01:18:46;;;;;;;1.73;1.13;;;;;;;;;;4757778;30;20117;-93
2023/03/06 01:21:13;;;;;;;3.80;2.92;;;;;;;;;;4758042;30;20056;-92
2023/03/06 01:23:39;;;;;;;4.22;1.35;;;;;;;;;;4743669;30;20082;-93
2023/03/06 01:26:05;;;;;;;2.38;1.40;;;;;;;;;;4757853;30;20208;-92
2023/03/06 01:28:32;;;;;;;1.58;1.10;;;;;;;;;;4757848;30;20098;-93
2023/03/06 01:31:00;;;;;;;5.15;1.63;;;;;;;;;;4757689;30;20056;-93
2023/03/06 01:33:27;;;;;;;1.77;1.35;;;;;;;;;;4757437;30;20059;-91
2023/03/06 01:35:53;;;;;;;1.25;1.15;;;;;;;;;;4757093;30;20198;-90
2023/03/06 01:38:19;;;;;;;4.03;1.33;;;;;;;;;;4728162;30;20052;-93
2023/03/06 01:40:45;;;;;;;7.68;2.80;;;;;;;;;;4757344;30;20379;-91
2023/03/06 01:43:11;;;;;;;2.38;1.88;;;;;;;;;;4757054;30;20470;-89
2023/03/06 01:45:37;;;;;;;2.40;1.80;;;;;;;;;;4757736;30;20465;-91
2023/03/06 01:48:03;;;;;;;1.90;1.70;;;;;;;;;;4757359;30;20062;-93
2023/03/06 01:50:29;;;;;;;2.78;1.77;;;;;;;;;;4757314;30;20086;-93
2023/03/06 01:52:57;;;;;;;1.55;1.40;;;;;;;;;;4756788;30;20059;-93
2023/03/06 01:55:30;;;;;;;3.90;1.45;;;;;;;;;;4773430;30;20124;-93
2023/03/06 01:57:58;;;;;;;1.75;1.27;;;;;;;;;;4757064;30;20113;-93
2023/03/06 02:00:26;;;;;;;1.35;1.00;;;;;;;;;;4757034;30;20070;-90
2023/03/06 02:03:11;;;;;;;2.42;0.82;;;;;;;;;;4757132;30;20062;-92
2023/03/06 02:05:38;;;;;;;0.82;0.80;;;;;;;;;;4756755;30;20064;-93
2023/03/06 02:08:05;;;;;;;2.17;0.80;;;;;;;;;;4757290;30;20506;-93
2023/03/06 02:10:31;;;;;;;0.57;0.57;;;;;;;;;;4756971;30;20055;-92
2023/03/06 02:12:58;;;;;;;0.80;0.80;;;;;;;;;;4742423;30;20068;-93
2023/03/06 02:15:25;;;;;;;2.65;0.60;;;;;;;;;;4756836;30;20483;-91
2023/03/06 02:17:51;;;;;;;0.95;0.90;;;;;;;;;;4727721;30;20316;-92
2023/03/06 02:20:17;;;;;;;0.80;0.80;;;;;;;;;;4757212;30;20475;-91
2023/03/06 02:22:47;;;;;;;0.90;0.90;;;;;;;;;;4756449;30;20072;-90
2023/03/06 02:25:32;;;;;;;0.75;0.75;;;;;;;;;;4756530;30;20059;-88
2023/03/06 02:27:58;;;;;;;1.88;1.00;;;;;;;;;;4756272;30;20513;-88
2023/03/06 02:30:25;;;;;;;1.15;1.05;;;;;;;;;;4756221;30;20047;-91
2023/03/06 02:32:51;;;;;;;0.90;0.90;;;;;;;;;;4756573;30;20493;-88
2023/03/06 02:35:20;;;;;;;0.65;0.65;;;;;;;;;;4756076;30;20059;-90
2023/03/06 02:37:46;;;;;;;0.93;0.90;;;;;;;;;;4756805;30;20063;-86
2023/03/06 02:40:14;;;;;;;1.42;0.85;;;;;;;;;;4770977;30;20051;-89
2023/03/06 02:42:48;;;;;;;0.80;0.77;;;;;;;;;;4755866;30;20121;-90
2023/03/06 02:45:16;;;;;;;1.23;0.80;;;;;;;;;;4755733;30;20115;-89
2023/03/06 02:47:42;;;;;;;0.70;0.70;;;;;;;;;;4771638;30;20510;-90
2023/03/06 02:50:09;;;;;;;1.33;0.77;;;;;;;;;;4771589;30;20522;-88
2023/03/06 02:52:35;;;;;;;0.80;0.80;;;;;;;;;;4755666;30;20517;-89
2023/03/06 02:55:01;;;;;;;0.70;0.70;;;;;;;;;;4755645;30;20062;-87
2023/03/06 02:57:27;;;;;;;1.50;0.75;;;;;;;;;;4755980;30;20063;-89
2023/03/06 02:59:53;;;;;;;1.52;0.80;;;;;;;;;;4727415;30;20143;-87
2023/03/06 03:02:19;;;;;;;0.73;0.73;;;;;;;;;;4755375;30;20051;-87
2023/03/06 03:04:45;;;;;;;0.80;0.80;;;;;;;;;;4725892;30;20055;-88
2023/03/06 03:07:11;;;;;;;2.75;0.88;;;;;;;;;;4755945;30;20106;-89
2023/03/06 03:09:38;;;;;;;4.00;0.80;;;;;;;;;;4727355;30;20067;-90
2023/03/06 03:12:05;;;;;;;0.88;0.88;;;;;;;;;;4755498;30;20056;-91
2023/03/06 03:14:31;;;;;;;0.85;0.77;;;;;;;;;;4755275;30;20422;-90
2023/03/06 03:16:57;;;;;;;1.00;0.90;;;;;;;;;;4726313;30;20071;-89
2023/03/06 03:19:23;;;;;;;3.70;1.20;;;;;;;;;;4755089;30;20059;-91
2023/03/06 03:21:49;;;;;;;3.15;0.98;;;;;;;;;;4755396;30;20541;-88
2023/03/06 03:24:16;;;;;;;1.15;0.80;;;;;;;;;;4740851;30;20149;-91
2023/03/06 03:26:42;;;;;;;1.08;0.98;;;;;;;;;;4755256;30;20448;-90
2023/03/06 03:29:09;;;;;;;1.23;0.85;;;;;;;;;;4754986;30;20576;-89
2023/03/06 03:31:35;;;;;;;0.80;0.80;;;;;;;;;;4755635;30;20056;-89
2023/03/06 03:34:02;;;;;;;1.02;0.90;;;;;;;;;;4755586;30;20544;-90
2023/03/06 03:36:28;;;;;;;0.70;0.70;;;;;;;;;;4755769;30;20095;-92
2023/03/06 03:38:55;;;;;;;3.25;1.33;;;;;;;;;;4755517;30;20059;-90
2023/03/06 03:41:21;;;;;;;2.03;1.35;;;;;;;;;;4755581;30;20060;-92
2023/03/06 03:43:47;;;;;;;2.85;1.40;;;;;;;;;;4755439;30;20495;-89
2023/03/06 03:46:13;;;;;;;3.00;1.08;;;;;;;;;;4726462;30;20059;-89
2023/03/06 03:48:39;;;;;;;0.98;0.90;;;;;;;;;;4754685;30;20056;-91
2023/03/06 03:51:09;;;;;;;4.50;1.33;;;;;;;;;;4725947;30;20063;-92
2023/03/06 03:53:36;;;;;;;0.77;0.77;;;;;;;;;;4755032;30;20063;-89
2023/03/06 03:56:02;;;;;;;1.80;1.00;;;;;;;;;;4740026;30;20067;-89
2023/03/06 03:58:28;;;;;;;1.02;1.02;;;;;;;;;;4755117;30;20056;-91
2023/03/06 04:00:54;;;;;;;1.00;1.00;;;;;;;;;;4754790;30;20048;-92
2023/03/06 04:03:20;;;;;;;1.02;0.90;;;;;;;;;;4725600;30;20089;-92
2023/03/06 04:05:47;;;;;;;1.40;1.10;;;;;;;;;;4755301;30;20274;-92
2023/03/06 04:08:13;;;;;;;1.10;1.00;;;;;;;;;;4755058;30;20443;-93
2023/03/06 04:10:39;;;;;;;1.33;0.98;;;;;;;;;;4770290;30;20059;-91
2023/03/06 04:13:06;;;;;;;1.73;1.00;;;;;;;;;;4754519;30;20056;-90
2023/03/06 04:15:32;;;;;;;1.50;1.33;;;;;;;;;;4754354;30;20063;-92
2023/03/06 04:17:58;;;;;;;1.27;1.00;;;;;;;;;;4754776;30;20062;-92
2023/03/06 04:20:24;;;;;;;0.90;0.90;;;;;;;;;;4755546;30;20067;-91
2023/03/06 04:22:50;;;;;;;0.80;0.80;;;;;;;;;;4725781;30;20152;-91
2023/03/06 04:25:17;;;;;;;1.27;1.00;;;;;;;;;;4754828;30;20063;-92
2023/03/06 04:27:43;;;;;;;1.10;1.00;;;;;;;;;;4725807;30;20114;-91
2023/03/06 04:30:09;;;;;;;1.40;1.05;;;;;;;;;;4754804;30;20062;-92
2023/03/06 04:32:35;;;;;;;1.10;1.00;;;;;;;;;;4754588;30;20142;-92
2023/03/06 04:35:01;;;;;;;1.58;1.40;;;;;;;;;;4754884;30;20063;-92
2023/03/06 04:37:28;;;;;;;1.13;1.02;;;;;;;;;;4755034;30;20143;-93
2023/03/06 04:39:54;;;;;;;1.10;1.02;;;;;;;;;;4726154;30;20513;-91
2023/03/06 04:42:20;;;;;;;1.08;1.00;;;;;;;;;;4754598;30;20064;-91
2023/03/06 04:44:46;;;;;;;1.00;1.00;;;;;;;;;;4725831;30;20043;-91
2023/03/06 04:47:12;;;;;;;1.10;1.10;;;;;;;;;;4725434;30;20063;-91
2023/03/06 04:49:38;;;;;;;1.20;1.00;;;;;;;;;;4754828;30;20067;-91
2023/03/06 04:52:04;;;;;;;2.92;1.00;;;;;;;;;;4725738;30;20414;-93
2023/03/06 04:54:31;;;;;;;1.17;1.08;;;;;;;;;;4754936;30;20071;-92
2023/03/06 04:56:57;;;;;;;1.33;1.00;;;;;;;;;;4754572;30;20067;-92
2023/03/06 04:59:23;;;;;;;1.90;1.20;;;;;;;;;;4754668;30;20066;-92
2023/03/06 05:01:49;;;;;;;1.00;1.00;;;;;;;;;;4755111;30;20406;-93
2023/03/06 05:04:15;;;;;;;2.40;1.42;;;;;;;;;;4726502;30;20047;-93
2023/03/06 05:06:41;;;;;;;1.50;1.40;;;;;;;;;;4726219;30;20158;-93
2023/03/06 05:09:07;;;;;;;1.42;1.30;;;;;;;;;;4754961;30;20093;-92
2023/03/06 05:11:33;;;;;;;1.23;1.00;;;;;;;;;;4754464;30;20055;-94
2023/03/06 05:13:59;;;;;;;1.33;1.27;;;;;;;;;;4754500;30;20435;-93
2023/03/06 05:16:25;;;;;;;2.58;1.55;;;;;;;;;;4725040;30;20072;-92
2023/03/06 05:18:52;;;;;;;1.13;1.13;;;;;;;;;;4754370;30;20059;-92
2023/03/06 05:21:18;;;;;;;1.60;1.30;;;;;;;;;;4725539;30;20151;-92
2023/03/06 05:23:44;;;;;;;1.65;1.40;;;;;;;;;;4755530;30;20060;-93
2023/03/06 05:26:11;;;;;;;1.85;1.35;;;;;;;;;;4754769;30;20066;-93
2023/03/06 05:28:37;;;;;;;3.50;1.40;;;;;;;;;;4757162;30;20138;-90
2023/03/06 05:31:03;;;;;;;1.92;1.48;;;;;;;;;;4728213;30;20059;-91
2023/03/06 05:33:31;;;;;;;1.52;1.33;;;;;;;;;;4757166;30;20058;-89
2023/03/06 05:35:57;;;;;;;1.65;1.25;;;;;;;;;;4756973;30;20129;-90
2023/03/06 05:38:23;;;;;;;2.90;1.50;;;;;;;;;;4757896;30;20059;-90
2023/03/06 05:40:49;;;;;;;1.38;1.27;;;;;;;;;;4772127;30;20059;-89
2023/03/06 05:43:16;;;;;;;3.20;1.63;;;;;;;;;;4757699;30;20121;-90
2023/03/06 05:45:49;;;;;;;1.80;1.70;;;;;;;;;;4772603;30;20059;-91
2023/03/06 05:48:24;;;;;;;1.50;1.40;;;;;;;;;;4760549;30;20402;-91
2023/03/06 05:54:12;;;;;;;1.70;1.60;;;;;;;;;;4773645;30;20521;-90
2023/03/06 05:56:39;;;;;;;1.50;1.40;;;;;;;;;;4727770;30;20115;-90
2023/03/06 05:59:08;;;;;;;3.10;1.25;;;;;;;;;;4757001;30;20079;-92
2023/03/06 06:01:34;;;;;;;1.58;1.48;;;;;;;;;;4756816;30;20059;-90
2023/03/06 06:04:00;;;;;;;3.78;1.60;;;;;;;;;;4771984;30;20119;-92
2023/03/06 06:06:26;;;;;;;2.55;1.90;;;;;;;;;;4756888;30;20098;-91
2023/03/06 06:08:52;;;;;;;2.08;1.95;;;;;;;;;;4757803;30;20506;-93
2023/03/06 06:11:19;;;;;;;2.30;1.95;;;;;;;;;;4758941;30;20146;-95
2023/03/06 06:13:48;;;;;;;2.58;2.38;;;;;;;;;;4758541;30;20527;-94
2023/03/06 06:16:22;;;;;;;3.00;2.05;;;;;;;;;;4757915;30;20089;-93
2023/03/06 06:18:48;;;;;;;2.00;1.80;;;;;;;;;;4728109;30;20059;-94
2023/03/06 06:21:17;;;;;;;2.15;1.95;;;;;;;;;;4728649;30;20059;-91
2023/03/06 06:23:45;;;;;;;2.60;2.28;;;;;;;;;;4756797;30;20498;-95
2023/03/06 06:26:11;;;;;;;2.80;2.60;;;;;;;;;;4728005;30;20064;-91
2023/03/06 06:28:38;;;;;;;5.90;2.90;;;;;;;;;;4757417;30;20058;-93
2023/03/06 06:31:09;;;;;;;6.35;3.45;;;;;;;;;;4757517;30;20074;-93
2023/03/06 06:33:38;;;;;;;3.30;2.65;;;;;;;;;;4757851;30;20401;-92
2023/03/06 06:36:04;;;;;;;4.50;2.95;;;;;;;;;;4728073;30;20052;-91
2023/03/06 06:38:33;;;;;;;5.15;2.80;;;;;;;;;;4756124;30;20149;-91
2023/03/06 06:41:02;;;;;;;3.40;2.30;;;;;;;;;;4727681;30;20176;-92
2023/03/06 06:43:28;;;;;;;2.28;2.08;;;;;;;;;;4756674;30;20127;-94
2023/03/06 06:45:54;;;;;;;3.00;2.70;;;;;;;;;;4756635;30;20517;-94
2023/03/06 06:48:21;;;;;;;6.03;2.03;;;;;;;;;;4756502;30;20044;-95
2023/03/06 06:50:57;;;;;;;2.22;2.03;;;;;;;;;;4771568;30;20055;-93
2023/03/06 06:53:23;;;;;;;2.00;1.80;;;;;;;;;;4756109;30;20063;-94
2023/03/06 06:55:49;;;;;;;2.65;2.25;;;;;;;;;;4756593;30;20063;-94
2023/03/06 06:58:15;;;;;;;1.50;1.40;;;;;;;;;;4756566;30;20058;-93
2023/03/06 07:00:42;;;;;;;2.08;1.88;;;;;;;;;;4756845;30;20529;-92
2023/03/06 07:03:11;;;;;;;2.58;2.00;;;;;;;;;;4756613;30;20146;-93
2023/03/06 07:05:44;;;;;;;2.22;2.03;;;;;;;;;;4727225;30;20091;-93
2023/03/06 07:08:10;;;;;;;2.13;1.90;;;;;;;;;;4756050;30;20142;-93
2023/03/06 07:10:42;;;;;;;1.60;1.50;;;;;;;;;;4756234;30;20055;-93
2023/03/06 07:13:08;;;;;;;2.05;1.58;;;;;;;;;;4756307;30;20494;-94
2023/03/06 07:15:55;;;;;;;2.08;1.70;;;;;;;;;;4755661;30;20083;-92
2023/03/06 07:18:25;;;;;;;4.07;2.20;;;;;;;;;;4755768;30;20059;-92
2023/03/06 07:24:38;;;;;;;4.45;2.17;;;;;;;;;;4771864;30;20105;-92
2023/03/06 07:30:59;;;;;;;2.50;2.25;;;;;;;;;;4769998;30;20138;-95
2023/03/06 07:33:51;;;;;;;2.78;2.45;;;;;;;;;;4726784;30;20569;-93
2023/03/06 07:42:58;;;;;;;3.28;2.30;;;;;;;;;;4771344;30;20066;-90
2023/03/06 07:46:02;;;;;;;3.80;2.20;;;1.40;99.90;;;;;;4756015;30;20063;-90
2023/03/06 07:48:49;;;;;;;4.68;2.85;;;;;;;;;;4718342;30;20199;-90
2023/03/06 08:00:55;;;;;;;3.83;2.20;;;;;;;;;;4755115;30;19932;-88
2023/03/06 08:03:21;;;;;;;4.55;2.30;;;;;;;;;;4741143;30;20044;-89
2023/03/06 08:05:52;;;;;;;3.63;2.53;;;;;;;;;;4740919;30;20142;-89
2023/03/06 08:08:18;;;;;;;2.70;2.45;;;;;;;;;;4754861;30;20055;-88
2023/03/06 08:10:48;;;;;;;3.28;2.92;;;;;;;;;;4755476;30;20626;-91
2023/03/06 08:13:14;;;;;;;4.25;2.83;;;;;;;;;;4755392;30;20047;-91
2023/03/06 08:15:40;;;;;;;3.28;1.98;;;;;;;;;;4769788;30;20142;-90
2023/03/06 08:18:06;;;;;;;5.20;2.50;;;;;;;;;;4755219;30;20086;-91
2023/03/06 08:20:35;;;;;;;3.53;2.22;;;;;;;;;;4755629;30;20051;-90
2023/03/06 08:23:01;;;;;;;4.47;2.38;;;;;;;;;;4754675;30;20051;-90
2023/03/06 08:25:31;;;;;;;3.67;1.80;;;;;;;;;;4754921;30;20059;-90
2023/03/06 08:28:00;;;;;;;4.32;2.10;;;;;;;;;;4725770;30;20052;-89
2023/03/06 08:30:29;;;;;;;3.03;2.42;;;;;;;;;;4725422;30;20203;-90
2023/03/06 08:32:55;;;;;;;7.78;2.30;;;;;;;;;;4726761;30;20147;-90
2023/03/06 08:35:24;;;;;;;2.17;1.98;;;;;;;;;;4726149;30;20463;-91
2023/03/06 08:37:56;;;;;;;4.38;2.50;;;;;;;;;;4727927;30;20063;-90
2023/03/06 08:40:25;;;;;;;3.95;2.22;;;;;;;;;;4754938;30;20094;-90
2023/03/06 08:42:51;;;;;;;2.53;2.33;;;;;;;;;;4755394;30;20146;-91
2023/03/06 08:45:18;;;;;;;3.38;1.98;;;;;;;;;;4755243;30;20051;-92
2023/03/06 08:47:44;;;;;;;3.45;2.35;;;;;;;;;;4755367;30;20051;-91
2023/03/06 08:50:13;;;;;;;5.57;2.22;;;;;;;;;;4754821;30;20079;-92
2023/03/06 08:52:52;;;;;;;3.83;2.58;;;;;;;;;;4755228;30;20066;-91
2023/03/06 08:55:26;;;;;;;4.57;2.25;;;;;;;;;;4754846;30;20101;-91
2023/03/06 08:58:03;;;;;;;5.22;1.85;;;;;;;;;;4725887;30;20529;-91
2023/03/06 09:00:47;;;;;;;11.15;2.15;;;;;;;;;;4755226;30;20510;-90
2023/03/06 09:03:22;;;;;;;6.70;2.38;;;;;;;;;;4730470;30;20056;-91
2023/03/06 09:05:59;;;;;;;3.85;1.80;;;;;;;;;;4772748;30;20091;-91
2023/03/06 09:08:47;;;;;;;;;;;;;;;;;;;;;
2023/03/06 09:15:18;;;;;;;5.57;1.50;;;;;;;;;;4763056;29;20097;-91
2023/03/06 09:21:49;;;;;;;6.85;1.40;;;;;;;;;;4753945;30;20128;-90
2023/03/06 09:30:47;;;;;;;2.50;1.05;;;;;;;;;;4824803;24;20056;-91
2023/03/06 09:40:31;;;;;;;6.35;1.70;;;;;;;;;;4753828;29;20074;-91
2023/03/06 09:47:38;;;;;;;1.38;0.90;;;;;;;;;;4773712;30;20050;-91
2023/03/06 10:17:01;;;;;;;2.35;0.88;;;;;;;;;;4773583;30;20145;-92
2023/03/06 10:20:31;;;;;;;3.15;1.10;;;;;;;;;;4794824;24;20094;-93
2023/03/06 10:26:57;;;;;;;3.17;0.75;;;;;;;;;;4773534;30;20043;-93
2023/03/06 10:33:06;;;;;;;;;;;;;;;;;;;;;
2023/03/06 10:35:35;;;;;;;2.10;0.98;;;;;;;;;;4758135;30;20060;-94
2023/03/06 10:48:35;;;;;;;1.98;0.93;;;;;;;;;;4743138;30;20498;-92
2023/03/06 10:51:44;;;;;;;2.13;0.73;;;;;;;;;;4756950;30;20055;-93
2023/03/06 10:58:03;;;;;;;1.00;0.57;;;;;;;;;;4772689;30;20062;-93
2023/03/06 11:04:17;;;;;;;3.35;0.93;;;;;;;;;;4772579;30;20098;-94
2023/03/06 11:07:30;;;;;;;0.82;0.82;;;5.20;99.90;;;;;;4755451;30;20156;-93
2023/03/06 11:10:14;;;;;;;;;;;;;;;;;;;;;
2023/03/06 11:16:50;;;;;;;;;;;;;;;;;;;;;
2023/03/06 11:19:37;;;;;;;1.85;1.13;;;;;;;;;;4688769;30;20116;-91
2023/03/06 11:25:57;;;;;;;1.75;1.15;;;;;;;;;;4716547;30;20534;-93
2023/03/06 11:28:42;;;;;;;;;;;;;;;;;;;;;
2023/03/06 11:31:18;;;;;;;2.67;0.85;;;;;;;;;;4731890;30;20576;-92
2023/03/06 11:34:04;;;;;;;2.97;1.08;;;;;;;;;;4737784;30;20113;-91
2023/03/06 11:36:57;;;;;;;4.95;1.23;;;;;;;;;;4752545;30;20052;-91
2023/03/06 11:39:41;;;;;;;4.07;1.15;;;;;;;;;;4738668;30;20165;-92
2023/03/06 11:42:32;;;;;;;2.83;0.85;;;;;;;;;;4752881;30;20499;-92
2023/03/06 11:45:37;;;;;;;1.38;1.08;;;;;;;;;;4752621;30;20130;-92
2023/03/06 11:48:23;;;;;;;1.05;0.93;;;;;;;;;;4738529;30;20106;-92
2023/03/06 11:50:56;;;;;;;1.25;0.90;;;;;;;;;;4721211;30;20117;-92
2023/03/06 11:53:28;;;;;;;2.30;0.90;;;;;;;;;;4738917;30;20175;-92
2023/03/06 11:56:00;;;;;;;1.15;0.60;;;;;;;;;;4753764;30;20056;-93
2023/03/06 11:58:35;;;;;;;1.15;0.82;;;;;;;;;;4753621;30;20060;-92
2023/03/06 12:01:02;;;;;;;1.60;0.68;;;;;;;;;;4752937;30;20164;-93
2023/03/06 12:03:30;;;;;;;0.77;0.75;;;;;;;;;;4752528;30;20562;-93
2023/03/06 12:06:08;;;;;;;0.55;0.50;;;;;;;;;;4738469;30;20059;-94
2023/03/06 12:08:49;;;;;;;1.42;0.80;;;;;;;;;;4738186;30;20052;-93
2023/03/06 12:11:50;;;;;;;1.55;0.95;;;;;;;;;;4754442;30;20059;-92
2023/03/06 12:14:17;;;;;;;1.42;0.88;;;;;;;;;;4712166;30;20499;-92
2023/03/06 12:17:04;;;;;;;2.05;0.75;;;;;;;;;;4752261;30;20048;-92
2023/03/06 12:19:52;;;;;;;6.22;0.90;;;;;;;;;;4739246;30;20494;-93
2023/03/06 12:22:30;;;;;;;1.55;0.90;;;;;;;;;;4770028;24;20147;-93
2023/03/06 12:25:16;;;;;;;2.47;1.15;;;;;;;;;;4740723;30;20056;-93
2023/03/06 12:31:49;;;;;;;1.23;0.95;;;;;;;;;;4771517;30;20081;-92
2023/03/06 12:34:57;;;;;;;2.78;1.38;;;;;;;;;;4751866;24;20060;-92
2023/03/06 12:37:39;;;;;;;1.27;0.75;;;;;;;;;;4742035;30;20063;-92
2023/03/06 12:40:27;;;;;;;0.75;0.75;;;;;;;;;;4743348;30;20059;-93
2023/03/06 12:59:38;;;;;;;1.13;0.80;;;;;;;;;;4719958;30;20542;-92
2023/03/06 13:12:56;;;;;;;;;;;;;;;;;;;;;
2023/03/06 13:28:57;;;;;;;0.70;0.70;;;;;;;;;;1403492;24;20156;-91
2023/03/06 13:36:10;;;;;;;0.73;0.73;;;;;;;;;;4774409;30;20500;-92
2023/03/06 13:42:29;;;;;;;0.70;0.70;;;;;;;;;;4773573;30;20086;-93
2023/03/06 14:05:48;;;;;;;8.70;0.80;;;;;;;;;;4772374;29;20563;-93
2023/03/06 14:20:09;;;;;;;4.85;0.70;;;;;;;;;;4774286;30;20054;-92
2023/03/06 14:26:48;;;;;;;3.17;0.90;;;;;;;;;;5202769;24;20062;-93
2023/03/06 14:52:16;;;;;;;1.67;1.20;;;;;;;;;;4741184;24;20742;-92
2023/03/06 15:40:32;;;;;;;3.83;2.60;;;;;;;;;;4767747;24;20071;-88
2023/03/06 15:43:04;;;;;;;3.67;2.88;;;;;;;;;;4738465;30;20146;-91
2023/03/06 15:45:43;;;;;;;4.47;3.03;;;;;;;;;;4738763;30;20056;-95
2023/03/06 15:48:15;;;;;;;5.15;3.03;;;;;;;;;;4738799;30;20143;-92
2023/03/06 15:50:52;;;;;;;3.58;2.33;;;;;;;;;;4738993;30;20118;-94
2023/03/06 15:53:37;;;;;;;3.00;2.55;;;;;;;;;;4712161;30;20062;-92
2023/03/06 15:56:09;;;;;;;4.53;3.00;;;;;;;;;;4709744;30;20056;-91
2023/03/06 15:58:42;;;;;;;3.97;2.72;;;;;;;;;;4738794;30;20055;-92
2023/03/06 16:01:15;;;;;;;3.40;2.80;;;;;;;;;;4738277;30;20052;-91
2023/03/06 16:03:44;;;;;;;5.03;2.65;;;;;;;;;;4738177;30;20056;-90
2023/03/06 16:06:20;;;;;;;5.88;2.55;;;;;;;;;;4752901;30;20414;-90
2023/03/06 16:08:49;;;;;;;2.90;2.40;;;;;;;;;;4753316;30;20091;-91
2023/03/06 16:11:29;;;;;;;3.85;3.00;;;;;;;;;;4737429;30;20063;-90
2023/03/06 16:14:01;;;;;;;8.85;3.08;;;;;;;;;;4738065;30;20468;-90
2023/03/06 16:16:38;;;;;;;4.90;2.78;;;;;;;;;;4738118;30;20056;-90
2023/03/06 16:19:12;;;;;;;6.03;3.38;;;;;;;;;;4753194;30;20457;-91
2023/03/06 16:22:31;;;;;;;4.22;2.75;;;;;;;;;;4700159;30;20061;-90
2023/03/06 16:25:13;;;;;;;3.53;2.47;;;;;;;;;;4685213;30;20080;-90
2023/03/06 16:28:32;;;;;;;3.90;3.05;;;;;;;;;;4686288;30;20057;-89
2023/03/06 16:30:58;;;;;;;11.00;3.50;;;;;;;;;;4683807;30;20054;-89
2023/03/06 16:33:27;;;;;;;7.80;4.30;;;;;;;;;;4702142;30;20123;-89
2023/03/06 16:35:53;;;;;;;4.78;3.53;;;;;;;;;;4722159;30;20122;-88
2023/03/06 16:38:19;;;;;;;4.32;3.78;;;;;;;;;;4737031;30;20060;-87
2023/03/06 16:40:46;;;;;;;4.88;3.90;;;;;;;;;;4736651;30;20060;-89
2023/03/06 16:43:14;;;;;;;8.05;4.30;;;;;;;;;;4708238;30;20056;-88
2023/03/06 16:45:40;;;;;;;6.57;4.85;;;;;;;;;;4722245;30;20067;-87
2023/03/06 16:48:07;;;;;;;4.70;3.63;;;;;;;;;;4736777;30;20184;-87
2023/03/06 16:50:36;;;;;;;5.68;3.10;;;;;;;;;;4737216;30;20056;-88
2023/03/06 16:53:02;;;;;;;8.80;3.70;;;;;;;;;;4736994;30;20048;-90
2023/03/06 16:55:29;;;;;;;4.90;3.55;;;;;;;;;;4707738;30;20060;-89
2023/03/06 16:57:55;;;;;;;4.45;3.00;;;;;;;;;;4736533;30;20063;-88
2023/03/06 17:00:23;;;;;;;5.45;3.30;;;;;;;;;;4736407;30;20052;-89
2023/03/06 17:02:50;;;;;;;3.47;2.85;;;;;;;;;;4736755;30;20121;-90
2023/03/06 17:05:16;;;;;;;4.65;3.78;;;;;;;;;;4722348;30;20052;-89
2023/03/06 17:07:42;;;;;;;6.43;3.78;;;;;;;;;;4751261;30;20060;-88
2023/03/06 17:10:10;;;;;;;6.82;3.47;;;;;;;;;;4736599;30;20079;-89
2023/03/06 17:12:36;;;;;;;5.47;3.80;;;;;;;;;;4751359;30;20056;-88
2023/03/06 17:15:03;;;;;;;5.13;3.13;;;;;;;;;;4708059;30;20072;-89
2023/03/06 17:17:29;;;;;;;4.85;3.30;;;;;;;;;;4736034;30;20147;-88
2023/03/06 17:19:55;;;;;;;5.45;3.20;;;;;;;;;;4736597;30;20110;-89
2023/03/06 17:22:21;;;;;;;5.57;3.92;;;;;;;;;;4737089;30;20056;-90
2023/03/06 17:24:48;;;;;;;6.18;3.63;;;;;;;;;;4754295;30;20055;-88
2023/03/06 17:27:17;;;;;;;6.40;3.97;;;;;;;;;;4740352;30;20088;-89
2023/03/06 17:29:44;;;;;;;9.70;3.75;;;;;;;;;;4754850;30;20052;-90
2023/03/06 17:32:10;;;;;;;6.43;4.18;;;;;;;;;;4740507;30;20095;-89
2023/03/06 17:34:36;;;;;;;5.80;3.92;;;;;;;;;;4740799;30;20465;-90
2023/03/06 17:37:03;;;;;;;6.07;4.22;;;;;;;;;;4740113;30;20124;-90
2023/03/06 17:39:34;;;;;;;6.97;4.45;;;;;;;;;;4711426;30;20418;-89
2023/03/06 17:42:02;;;;;;;8.15;3.95;;;;;;;;;;4740137;30;20060;-90
2023/03/06 17:44:28;;;;;;;6.82;4.95;;;;;;;;;;4755088;30;20079;-88
2023/03/06 17:46:55;;;;;;;6.47;4.22;;;;;;;;;;4741159;30;20147;-89
2023/03/06 17:49:23;;;;;;;6.75;5.10;;;;;;;;;;4754816;30;20059;-89
2023/03/06 17:51:52;;;;;;;7.75;4.28;;;;;;;;;;4740204;30;20125;-89
2023/03/06 17:54:19;;;;;;;8.73;4.03;;;;;;;;;;4739823;30;20064;-89
2023/03/06 17:56:45;;;;;;;7.55;4.97;;;;;;;;;;4740468;30;20138;-89
2023/03/06 17:59:11;;;;;;;8.20;5.32;;;;;;;;;;4710581;30;20102;-88
2023/03/06 18:01:38;;;;;;;10.50;5.05;;;;;;;;;;4754805;30;20512;-89
2023/03/06 18:04:04;;;;;;;9.55;5.50;;;;;;;;;;4740235;30;20075;-89
2023/03/06 18:06:32;;;;;;;8.40;5.47;;;;;;;;;;4754714;30;20147;-88
2023/03/06 18:08:58;;;;;;;9.70;5.40;;;;;;;;;;4739899;30;20048;-88
2023/03/06 18:11:25;;;;;;;8.27;5.15;;;;;;;;;;4740180;30;20060;-89
2023/03/06 18:13:51;;;;;;;8.45;5.63;;;;;;;;;;4740232;30;20052;-89
2023/03/06 18:16:21;;;;;;;7.45;5.15;;;;;;;;;;4740422;30;20403;-89
2023/03/06 18:18:50;;;;;;;10.25;5.88;;;;;;;;;;4753851;30;20525;-88
2023/03/06 18:21:16;;;;;;;7.35;5.68;;;;;;;;;;4754375;30;20052;-89
2023/03/06 18:23:43;;;;;;;11.45;8.18;;;;;;;;;;4753734;30;20063;-89
2023/03/06 18:26:10;;;;;;;9.07;5.75;;;;;;;;;;4739604;30;20133;-90
2023/03/06 18:28:39;;;;;;;7.03;4.32;;;;;;;;;;4739341;30;20135;-89
2023/03/06 18:31:07;;;;;;;9.73;6.38;;;;;;;;;;4740780;30;20494;-89
2023/03/06 18:33:34;;;;;;;8.88;5.20;;;;;;;;;;4740478;30;20060;-89
2023/03/06 18:36:03;;;;;;;7.30;5.30;;;;;;;;;;4712082;30;20056;-90
2023/03/06 18:38:30;;;;;;;9.35;5.43;;;;;;;;;;4741242;30;20052;-92
2023/03/06 18:40:56;;;;;;;8.77;5.93;;;;;;;;;;4741054;30;20083;-90
2023/03/06 18:43:22;;;;;;;8.48;6.43;;;;;;;;;;4740770;30;20060;-92
2023/03/06 18:45:55;;;;;;;10.95;6.40;;;;;;;;;;4740703;30;20056;-91
2023/03/06 18:48:22;;;;;;;10.25;6.50;;;;;;;;;;4739941;30;20082;-93
2023/03/06 18:50:49;;;;;;;9.55;6.57;;;;;;;;;;4738844;30;20510;-91
2023/03/06 18:53:19;;;;;;;10.32;6.57;;;;;;;;;;4710347;30;20060;-91
2023/03/06 18:55:51;;;;;;;14.20;8.82;;;;;;;;;;4739412;30;20060;-92
2023/03/06 18:58:18;;;;;;;12.10;7.07;;;;;;;;;;4739935;30;20143;-91
2023/03/06 19:00:44;;;;;;;13.07;8.23;;;;;;;;;;4739209;30;20087;-92
2023/03/06 19:03:11;;;;;;;12.75;8.18;;;;;;;;;;4738992;30;20143;-92
2023/03/06 19:05:38;;;;;;;12.07;7.63;;;;;;;;;;4739547;30;20056;-91
2023/03/06 19:08:04;;;;;;;11.95;8.73;;;;;;;;;;4739513;30;20402;-91
2023/03/06 19:10:33;;;;;;;15.68;8.85;;;;;;;;;;4739817;30;20151;-92
2023/03/06 19:12:59;;;;;;;12.57;8.25;;;;;;;;;;4739792;30;20134;-91
2023/03/06 19:15:25;;;;;;;10.50;7.65;;;;;;;;;;4753965;30;20067;-91
2023/03/06 19:17:51;;;;;;;13.15;9.43;;;;;;;;;;4709864;30;20056;-90
2023/03/06 19:20:18;;;;;;;15.95;9.20;;;;;;;;;;4738305;30;20067;-90
2023/03/06 19:22:44;;;;;;;9.90;7.30;;;;;;;;;;4738722;30;20517;-90
2023/03/06 19:25:10;;;;;;;16.30;9.90;;;;;;;;;;4753845;30;20060;-91
2023/03/06 19:27:37;;;;;;;14.88;8.20;;;;;;;;;;4709468;30;20063;-91
2023/03/06 19:30:05;;;;;;;14.20;9.18;;;;;;;;;;4753292;30;20396;-90
2023/03/06 19:32:31;;;;;;;14.90;9.75;;;;;;;;;;4754802;30;20410;-89
2023/03/06 19:34:58;;;;;;;15.05;10.00;;;;;;;;;;4740037;30;20052;-91
2023/03/06 19:37:25;;;;;;;15.00;9.32;;;;;;;;;;4713743;30;20142;-92